sensor_id;sensor_type;location;lat;lon;timestamp;temperature;humidity
40932;DHT22;36257;46.052;12.540;2022-07-30T00:01:51;22.30;94.50
40932;DHT22;36257;46.052;12.540;2022-07-30T00:04:17;22.00;95.50
40932;DHT22;36257;46.052;12.540;2022-07-30T00:06:43;22.10;95.70
40932;DHT22;36257;46.052;12.540;2022-07-30T00:09:09;22.10;94.40
40932;DHT22;36257;46.052;12.540;2022-07-30T00:11:34;22.20;93.80
40932;DHT22;36257;46.052;12.540;2022-07-30T00:14:00;22.20;94.10
40932;DHT22;36257;46.052;12.540;2022-07-30T00:16:26;22.20;94.20
40932;DHT22;36257;46.052;12.540;2022-07-30T00:18:52;22.20;94.10
40932;DHT22;36257;46.052;12.540;2022-07-30T00:21:18;22.10;94.10
40932;DHT22;36257;46.052;12.540;2022-07-30T00:23:44;21.90;93.80
40932;DHT22;36257;46.052;12.540;2022-07-30T00:26:09;21.80;94.00
40932;DHT22;36257;46.052;12.540;2022-07-30T00:28:35;21.80;94.70
40932;DHT22;36257;46.052;12.540;2022-07-30T00:31:01;21.90;94.50
40932;DHT22;36257;46.052;12.540;2022-07-30T00:33:26;22.00;94.20
40932;DHT22;36257;46.052;12.540;2022-07-30T00:35:52;22.00;94.40
40932;DHT22;36257;46.052;12.540;2022-07-30T00:38:18;22.10;93.80
40932;DHT22;36257;46.052;12.540;2022-07-30T00:40:46;22.20;94.20
40932;DHT22;36257;46.052;12.540;2022-07-30T00:43:18;22.20;94.40
40932;DHT22;36257;46.052;12.540;2022-07-30T00:45:44;22.20;94.70
40932;DHT22;36257;46.052;12.540;2022-07-30T00:48:11;22.20;94.70
40932;DHT22;36257;46.052;12.540;2022-07-30T00:50:37;22.30;95.70
40932;DHT22;36257;46.052;12.540;2022-07-30T00:53:04;22.30;95.50
40932;DHT22;36257;46.052;12.540;2022-07-30T00:55:30;22.30;95.40
40932;DHT22;36257;46.052;12.540;2022-07-30T00:57:55;22.30;95.70
40932;DHT22;36257;46.052;12.540;2022-07-30T01:00:21;22.30;95.70
40932;DHT22;36257;46.052;12.540;2022-07-30T01:02:47;22.40;95.90
40932;DHT22;36257;46.052;12.540;2022-07-30T01:05:13;22.50;95.80
40932;DHT22;36257;46.052;12.540;2022-07-30T01:07:39;22.50;95.30
40932;DHT22;36257;46.052;12.540;2022-07-30T01:10:06;22.50;95.50
40932;DHT22;36257;46.052;12.540;2022-07-30T01:12:33;22.50;95.50
40932;DHT22;36257;46.052;12.540;2022-07-30T01:15:00;22.50;95.70
40932;DHT22;36257;46.052;12.540;2022-07-30T01:17:27;22.50;95.30
40932;DHT22;36257;46.052;12.540;2022-07-30T01:19:57;22.50;95.10
40932;DHT22;36257;46.052;12.540;2022-07-30T01:25:09;22.50;95.20
40932;DHT22;36257;46.052;12.540;2022-07-30T01:27:43;22.50;95.30
40932;DHT22;36257;46.052;12.540;2022-07-30T01:30:10;22.50;95.50
40932;DHT22;36257;46.052;12.540;2022-07-30T01:32:40;22.50;95.50
40932;DHT22;36257;46.052;12.540;2022-07-30T01:35:08;22.50;95.80
40932;DHT22;36257;46.052;12.540;2022-07-30T01:37:34;22.50;96.00
40932;DHT22;36257;46.052;12.540;2022-07-30T01:40:00;22.50;96.00
40932;DHT22;36257;46.052;12.540;2022-07-30T01:42:26;22.50;95.40
40932;DHT22;36257;46.052;12.540;2022-07-30T01:44:53;22.40;95.50
40932;DHT22;36257;46.052;12.540;2022-07-30T01:47:21;22.50;95.50
40932;DHT22;36257;46.052;12.540;2022-07-30T01:49:50;22.50;95.00
40932;DHT22;36257;46.052;12.540;2022-07-30T01:52:19;22.40;95.10
40932;DHT22;36257;46.052;12.540;2022-07-30T01:54:46;22.40;95.40
40932;DHT22;36257;46.052;12.540;2022-07-30T01:57:14;22.40;95.30
40932;DHT22;36257;46.052;12.540;2022-07-30T01:59:43;22.40;95.40
40932;DHT22;36257;46.052;12.540;2022-07-30T02:02:10;22.40;95.50
40932;DHT22;36257;46.052;12.540;2022-07-30T02:04:36;22.30;95.40
40932;DHT22;36257;46.052;12.540;2022-07-30T02:07:09;22.30;95.70
40932;DHT22;36257;46.052;12.540;2022-07-30T02:09:46;22.30;95.70
40932;DHT22;36257;46.052;12.540;2022-07-30T02:12:14;22.40;95.20
40932;DHT22;36257;46.052;12.540;2022-07-30T02:17:58;22.30;94.40
40932;DHT22;36257;46.052;12.540;2022-07-30T02:20:26;22.20;94.70
40932;DHT22;36257;46.052;12.540;2022-07-30T02:22:56;22.20;95.20
40932;DHT22;36257;46.052;12.540;2022-07-30T02:25:22;22.10;95.00
40932;DHT22;36257;46.052;12.540;2022-07-30T02:27:56;22.10;94.70
40932;DHT22;36257;46.052;12.540;2022-07-30T02:30:24;22.00;94.90
40932;DHT22;36257;46.052;12.540;2022-07-30T02:32:55;22.00;95.30
40932;DHT22;36257;46.052;12.540;2022-07-30T02:35:24;22.10;95.00
40932;DHT22;36257;46.052;12.540;2022-07-30T02:37:52;22.20;93.90
40932;DHT22;36257;46.052;12.540;2022-07-30T02:40:22;22.20;93.60
40932;DHT22;36257;46.052;12.540;2022-07-30T02:42:49;22.20;93.40
40932;DHT22;36257;46.052;12.540;2022-07-30T02:45:16;22.20;94.10
40932;DHT22;36257;46.052;12.540;2022-07-30T02:47:57;22.20;93.70
40932;DHT22;36257;46.052;12.540;2022-07-30T02:50:26;22.20;93.90
40932;DHT22;36257;46.052;12.540;2022-07-30T02:52:53;22.20;93.90
40932;DHT22;36257;46.052;12.540;2022-07-30T02:55:20;22.20;94.30
40932;DHT22;36257;46.052;12.540;2022-07-30T02:57:47;22.30;94.20
40932;DHT22;36257;46.052;12.540;2022-07-30T03:00:15;22.30;93.70
40932;DHT22;36257;46.052;12.540;2022-07-30T03:02:41;22.30;94.10
40932;DHT22;36257;46.052;12.540;2022-07-30T03:05:08;22.30;94.20
40932;DHT22;36257;46.052;12.540;2022-07-30T03:07:35;22.30;94.10
40932;DHT22;36257;46.052;12.540;2022-07-30T03:10:02;22.30;93.80
40932;DHT22;36257;46.052;12.540;2022-07-30T03:12:29;22.30;93.50
40932;DHT22;36257;46.052;12.540;2022-07-30T03:14:57;22.30;93.40
40932;DHT22;36257;46.052;12.540;2022-07-30T03:17:25;22.30;93.00
40932;DHT22;36257;46.052;12.540;2022-07-30T03:19:53;22.30;92.80
40932;DHT22;36257;46.052;12.540;2022-07-30T03:22:21;22.30;92.80
40932;DHT22;36257;46.052;12.540;2022-07-30T03:24:49;22.30;93.20
40932;DHT22;36257;46.052;12.540;2022-07-30T03:27:17;22.30;93.30
40932;DHT22;36257;46.052;12.540;2022-07-30T03:29:43;22.30;94.00
40932;DHT22;36257;46.052;12.540;2022-07-30T03:32:10;22.30;93.40
40932;DHT22;36257;46.052;12.540;2022-07-30T03:34:37;22.30;93.00
40932;DHT22;36257;46.052;12.540;2022-07-30T03:37:03;22.40;93.30
40932;DHT22;36257;46.052;12.540;2022-07-30T03:39:33;22.40;93.20
40932;DHT22;36257;46.052;12.540;2022-07-30T03:41:59;22.30;92.90
40932;DHT22;36257;46.052;12.540;2022-07-30T03:44:25;22.30;93.20
40932;DHT22;36257;46.052;12.540;2022-07-30T03:46:52;22.30;93.40
40932;DHT22;36257;46.052;12.540;2022-07-30T03:49:20;22.30;93.20
40932;DHT22;36257;46.052;12.540;2022-07-30T03:51:48;22.30;93.40
40932;DHT22;36257;46.052;12.540;2022-07-30T03:54:14;22.30;93.60
40932;DHT22;36257;46.052;12.540;2022-07-30T03:56:41;22.30;93.60
40932;DHT22;36257;46.052;12.540;2022-07-30T03:59:07;22.20;93.90
40932;DHT22;36257;46.052;12.540;2022-07-30T04:01:32;22.20;94.00
40932;DHT22;36257;46.052;12.540;2022-07-30T04:04:08;22.20;94.10
40932;DHT22;36257;46.052;12.540;2022-07-30T04:06:35;22.20;93.50
40932;DHT22;36257;46.052;12.540;2022-07-30T04:09:09;22.30;93.60
40932;DHT22;36257;46.052;12.540;2022-07-30T04:11:35;22.30;92.90
40932;DHT22;36257;46.052;12.540;2022-07-30T04:14:01;22.30;92.80
40932;DHT22;36257;46.052;12.540;2022-07-30T04:16:45;22.30;93.10
40932;DHT22;36257;46.052;12.540;2022-07-30T04:19:17;22.30;93.10
40932;DHT22;36257;46.052;12.540;2022-07-30T04:21:45;22.40;93.40
40932;DHT22;36257;46.052;12.540;2022-07-30T04:24:13;22.40;93.90
40932;DHT22;36257;46.052;12.540;2022-07-30T04:26:40;22.30;93.80
40932;DHT22;36257;46.052;12.540;2022-07-30T04:29:08;22.30;93.70
40932;DHT22;36257;46.052;12.540;2022-07-30T04:31:34;22.30;93.60
40932;DHT22;36257;46.052;12.540;2022-07-30T04:34:02;22.30;94.20
40932;DHT22;36257;46.052;12.540;2022-07-30T04:36:29;22.30;94.00
40932;DHT22;36257;46.052;12.540;2022-07-30T04:38:56;22.30;94.40
40932;DHT22;36257;46.052;12.540;2022-07-30T04:41:22;22.30;94.60
40932;DHT22;36257;46.052;12.540;2022-07-30T04:43:48;22.20;94.80
40932;DHT22;36257;46.052;12.540;2022-07-30T04:46:13;22.30;94.80
40932;DHT22;36257;46.052;12.540;2022-07-30T04:48:39;22.20;94.20
40932;DHT22;36257;46.052;12.540;2022-07-30T04:51:11;22.20;94.60
40932;DHT22;36257;46.052;12.540;2022-07-30T04:53:39;22.20;94.80
40932;DHT22;36257;46.052;12.540;2022-07-30T04:56:07;22.20;95.20
40932;DHT22;36257;46.052;12.540;2022-07-30T04:58:34;22.20;95.20
40932;DHT22;36257;46.052;12.540;2022-07-30T05:01:01;22.30;95.10
40932;DHT22;36257;46.052;12.540;2022-07-30T05:03:28;22.30;95.00
40932;DHT22;36257;46.052;12.540;2022-07-30T05:05:56;22.30;95.00
40932;DHT22;36257;46.052;12.540;2022-07-30T05:08:25;22.40;95.00
40932;DHT22;36257;46.052;12.540;2022-07-30T05:10:51;22.40;94.90
40932;DHT22;36257;46.052;12.540;2022-07-30T05:13:17;22.40;94.70
40932;DHT22;36257;46.052;12.540;2022-07-30T05:15:43;22.40;93.90
40932;DHT22;36257;46.052;12.540;2022-07-30T05:18:12;22.40;94.30
40932;DHT22;36257;46.052;12.540;2022-07-30T05:20:38;22.40;94.40
40932;DHT22;36257;46.052;12.540;2022-07-30T05:23:05;22.40;94.70
40932;DHT22;36257;46.052;12.540;2022-07-30T05:25:31;22.40;94.30
40932;DHT22;36257;46.052;12.540;2022-07-30T05:27:56;22.40;94.20
40932;DHT22;36257;46.052;12.540;2022-07-30T05:30:23;22.40;94.10
40932;DHT22;36257;46.052;12.540;2022-07-30T05:32:49;22.40;93.70
40932;DHT22;36257;46.052;12.540;2022-07-30T05:35:18;22.40;93.70
40932;DHT22;36257;46.052;12.540;2022-07-30T05:37:43;22.40;94.40
40932;DHT22;36257;46.052;12.540;2022-07-30T05:40:10;22.40;94.40
40932;DHT22;36257;46.052;12.540;2022-07-30T05:42:36;22.40;94.40
40932;DHT22;36257;46.052;12.540;2022-07-30T05:45:01;22.40;94.60
40932;DHT22;36257;46.052;12.540;2022-07-30T05:47:27;22.40;94.30
40932;DHT22;36257;46.052;12.540;2022-07-30T05:49:52;22.40;94.60
40932;DHT22;36257;46.052;12.540;2022-07-30T05:52:18;22.50;94.30
40932;DHT22;36257;46.052;12.540;2022-07-30T05:54:44;22.60;94.20
40932;DHT22;36257;46.052;12.540;2022-07-30T05:57:10;22.60;93.30
40932;DHT22;36257;46.052;12.540;2022-07-30T05:59:36;22.80;92.30
40932;DHT22;36257;46.052;12.540;2022-07-30T06:02:02;22.90;91.80
40932;DHT22;36257;46.052;12.540;2022-07-30T06:04:28;23.10;90.60
40932;DHT22;36257;46.052;12.540;2022-07-30T06:06:54;23.30;89.10
40932;DHT22;36257;46.052;12.540;2022-07-30T06:09:20;23.60;87.70
40932;DHT22;36257;46.052;12.540;2022-07-30T06:11:46;23.80;86.60
40932;DHT22;36257;46.052;12.540;2022-07-30T06:14:11;24.00;86.20
40932;DHT22;36257;46.052;12.540;2022-07-30T06:16:37;24.20;85.60
40932;DHT22;36257;46.052;12.540;2022-07-30T06:19:03;24.40;84.60
40932;DHT22;36257;46.052;12.540;2022-07-30T06:21:28;24.50;84.60
40932;DHT22;36257;46.052;12.540;2022-07-30T06:23:54;24.60;83.70
40932;DHT22;36257;46.052;12.540;2022-07-30T06:26:20;24.70;82.90
40932;DHT22;36257;46.052;12.540;2022-07-30T06:28:46;24.80;83.40
40932;DHT22;36257;46.052;12.540;2022-07-30T06:31:11;25.00;83.30
40932;DHT22;36257;46.052;12.540;2022-07-30T06:33:37;25.10;81.90
40932;DHT22;36257;46.052;12.540;2022-07-30T06:36:03;25.30;81.90
40932;DHT22;36257;46.052;12.540;2022-07-30T06:38:29;25.50;80.60
40932;DHT22;36257;46.052;12.540;2022-07-30T06:40:55;25.60;79.90
40932;DHT22;36257;46.052;12.540;2022-07-30T06:43:21;25.60;79.30
40932;DHT22;36257;46.052;12.540;2022-07-30T06:45:46;25.60;79.70
40932;DHT22;36257;46.052;12.540;2022-07-30T06:48:12;25.80;80.20
40932;DHT22;36257;46.052;12.540;2022-07-30T06:50:38;25.90;79.00
40932;DHT22;36257;46.052;12.540;2022-07-30T06:53:05;26.00;78.80
40932;DHT22;36257;46.052;12.540;2022-07-30T06:55:31;26.20;78.70
40932;DHT22;36257;46.052;12.540;2022-07-30T06:57:56;26.30;78.80
40932;DHT22;36257;46.052;12.540;2022-07-30T07:00:22;26.40;76.90
40932;DHT22;36257;46.052;12.540;2022-07-30T07:02:48;26.40;76.80
40932;DHT22;36257;46.052;12.540;2022-07-30T07:05:13;26.50;76.90
40932;DHT22;36257;46.052;12.540;2022-07-30T07:07:39;26.50;77.10
40932;DHT22;36257;46.052;12.540;2022-07-30T07:10:05;26.60;77.60
40932;DHT22;36257;46.052;12.540;2022-07-30T07:12:31;26.80;76.70
40932;DHT22;36257;46.052;12.540;2022-07-30T07:14:57;26.90;76.40
40932;DHT22;36257;46.052;12.540;2022-07-30T07:17:23;27.00;75.80
40932;DHT22;36257;46.052;12.540;2022-07-30T07:19:48;27.10;76.20
40932;DHT22;36257;46.052;12.540;2022-07-30T07:22:14;27.10;75.10
40932;DHT22;36257;46.052;12.540;2022-07-30T07:24:39;27.30;74.60
40932;DHT22;36257;46.052;12.540;2022-07-30T07:27:06;27.30;74.40
40932;DHT22;36257;46.052;12.540;2022-07-30T07:29:32;27.20;74.40
40932;DHT22;36257;46.052;12.540;2022-07-30T07:32:01;27.00;76.00
40932;DHT22;36257;46.052;12.540;2022-07-30T07:34:26;27.20;76.00
40932;DHT22;36257;46.052;12.540;2022-07-30T07:36:52;27.30;74.80
40932;DHT22;36257;46.052;12.540;2022-07-30T07:39:17;27.50;78.30
40932;DHT22;36257;46.052;12.540;2022-07-30T07:41:43;27.50;73.70
40932;DHT22;36257;46.052;12.540;2022-07-30T07:44:09;27.40;75.50
40932;DHT22;36257;46.052;12.540;2022-07-30T07:46:34;27.50;73.30
40932;DHT22;36257;46.052;12.540;2022-07-30T07:49:00;27.60;74.10
40932;DHT22;36257;46.052;12.540;2022-07-30T07:51:26;27.80;74.50
40932;DHT22;36257;46.052;12.540;2022-07-30T07:53:52;28.00;74.20
40932;DHT22;36257;46.052;12.540;2022-07-30T07:56:17;28.20;71.50
40932;DHT22;36257;46.052;12.540;2022-07-30T07:58:45;28.30;72.10
40932;DHT22;36257;46.052;12.540;2022-07-30T08:01:11;28.50;70.40
40932;DHT22;36257;46.052;12.540;2022-07-30T08:03:37;28.60;70.60
40932;DHT22;36257;46.052;12.540;2022-07-30T08:06:02;28.50;69.00
40932;DHT22;36257;46.052;12.540;2022-07-30T08:08:28;28.40;71.30
40932;DHT22;36257;46.052;12.540;2022-07-30T08:10:54;28.70;69.20
40932;DHT22;36257;46.052;12.540;2022-07-30T08:13:19;28.60;70.10
40932;DHT22;36257;46.052;12.540;2022-07-30T08:15:45;28.80;69.90
40932;DHT22;36257;46.052;12.540;2022-07-30T08:18:11;28.80;68.10
40932;DHT22;36257;46.052;12.540;2022-07-30T08:20:37;28.90;68.00
40932;DHT22;36257;46.052;12.540;2022-07-30T08:23:04;29.10;68.00
40932;DHT22;36257;46.052;12.540;2022-07-30T08:25:30;29.20;66.40
40932;DHT22;36257;46.052;12.540;2022-07-30T08:27:56;29.00;66.30
40932;DHT22;36257;46.052;12.540;2022-07-30T08:30:21;28.90;66.20
40932;DHT22;36257;46.052;12.540;2022-07-30T08:32:47;28.90;68.40
40932;DHT22;36257;46.052;12.540;2022-07-30T08:35:13;28.90;68.00
40932;DHT22;36257;46.052;12.540;2022-07-30T08:37:39;28.70;67.80
40932;DHT22;36257;46.052;12.540;2022-07-30T08:40:06;28.60;67.60
40932;DHT22;36257;46.052;12.540;2022-07-30T08:42:33;28.30;67.20
40932;DHT22;36257;46.052;12.540;2022-07-30T08:45:00;28.50;69.20
40932;DHT22;36257;46.052;12.540;2022-07-30T08:47:30;28.90;65.10
40932;DHT22;36257;46.052;12.540;2022-07-30T08:49:57;29.20;66.30
40932;DHT22;36257;46.052;12.540;2022-07-30T08:52:26;29.60;64.80
40932;DHT22;36257;46.052;12.540;2022-07-30T08:54:53;30.00;68.50
40932;DHT22;36257;46.052;12.540;2022-07-30T08:57:19;30.20;63.80
40932;DHT22;36257;46.052;12.540;2022-07-30T08:59:47;30.30;65.00
40932;DHT22;36257;46.052;12.540;2022-07-30T09:02:12;30.00;64.10
40932;DHT22;36257;46.052;12.540;2022-07-30T09:04:38;29.90;66.70
40932;DHT22;36257;46.052;12.540;2022-07-30T09:07:04;30.10;66.00
40932;DHT22;36257;46.052;12.540;2022-07-30T09:09:29;30.10;64.10
40932;DHT22;36257;46.052;12.540;2022-07-30T09:11:55;30.40;66.30
40932;DHT22;36257;46.052;12.540;2022-07-30T09:14:20;30.80;62.50
40932;DHT22;36257;46.052;12.540;2022-07-30T09:16:46;31.10;66.70
40932;DHT22;36257;46.052;12.540;2022-07-30T09:19:20;31.20;63.10
40932;DHT22;36257;46.052;12.540;2022-07-30T09:24:21;31.70;62.80
40932;DHT22;36257;46.052;12.540;2022-07-30T09:27:01;31.60;61.40
40932;DHT22;36257;46.052;12.540;2022-07-30T09:29:28;31.40;61.00
40932;DHT22;36257;46.052;12.540;2022-07-30T09:32:07;31.20;62.40
40932;DHT22;36257;46.052;12.540;2022-07-30T09:34:36;31.10;62.50
40932;DHT22;36257;46.052;12.540;2022-07-30T09:39:38;30.60;64.80
40932;DHT22;36257;46.052;12.540;2022-07-30T09:42:19;30.40;63.10
40932;DHT22;36257;46.052;12.540;2022-07-30T09:44:46;30.50;64.40
40932;DHT22;36257;46.052;12.540;2022-07-30T09:47:42;30.50;62.00
40932;DHT22;36257;46.052;12.540;2022-07-30T09:50:16;30.40;63.40
40932;DHT22;36257;46.052;12.540;2022-07-30T09:52:43;30.40;61.80
40932;DHT22;36257;46.052;12.540;2022-07-30T09:55:10;30.70;65.20
40932;DHT22;36257;46.052;12.540;2022-07-30T09:57:53;31.10;61.60
40932;DHT22;36257;46.052;12.540;2022-07-30T10:00:21;31.30;61.20
40932;DHT22;36257;46.052;12.540;2022-07-30T10:02:48;31.20;60.60
40932;DHT22;36257;46.052;12.540;2022-07-30T10:05:15;31.20;61.80
40932;DHT22;36257;46.052;12.540;2022-07-30T10:07:51;31.40;60.80
40932;DHT22;36257;46.052;12.540;2022-07-30T10:10:24;31.50;61.20
40932;DHT22;36257;46.052;12.540;2022-07-30T10:12:52;31.80;62.00
40932;DHT22;36257;46.052;12.540;2022-07-30T10:15:24;32.00;58.80
40932;DHT22;36257;46.052;12.540;2022-07-30T10:17:52;31.90;60.30
40932;DHT22;36257;46.052;12.540;2022-07-30T10:20:18;32.10;59.90
40932;DHT22;36257;46.052;12.540;2022-07-30T10:22:44;32.20;59.70
40932;DHT22;36257;46.052;12.540;2022-07-30T10:25:11;32.10;57.60
40932;DHT22;36257;46.052;12.540;2022-07-30T10:27:37;32.10;57.70
40932;DHT22;36257;46.052;12.540;2022-07-30T10:30:04;32.40;60.70
40932;DHT22;36257;46.052;12.540;2022-07-30T10:32:31;32.50;59.90
40932;DHT22;36257;46.052;12.540;2022-07-30T10:34:57;32.70;57.10
40932;DHT22;36257;46.052;12.540;2022-07-30T10:37:23;32.80;59.50
40932;DHT22;36257;46.052;12.540;2022-07-30T10:45:23;32.00;59.90
40932;DHT22;36257;46.052;12.540;2022-07-30T10:47:53;32.20;61.20
40932;DHT22;36257;46.052;12.540;2022-07-30T10:50:21;32.70;60.00
40932;DHT22;36257;46.052;12.540;2022-07-30T10:55:27;33.10;58.30
40932;DHT22;36257;46.052;12.540;2022-07-30T11:00:33;33.30;59.70
40932;DHT22;36257;46.052;12.540;2022-07-30T11:05:41;33.50;58.40
40932;DHT22;36257;46.052;12.540;2022-07-30T11:08:30;33.30;57.30
40932;DHT22;36257;46.052;12.540;2022-07-30T11:10:56;33.10;57.80
40932;DHT22;36257;46.052;12.540;2022-07-30T11:13:57;33.00;58.50
40932;DHT22;36257;46.052;12.540;2022-07-30T11:17:09;32.60;59.30
40932;DHT22;36257;46.052;12.540;2022-07-30T11:19:16;32.30;60.10
40932;DHT22;36257;46.052;12.540;2022-07-30T11:21:45;32.60;59.40
40932;DHT22;36257;46.052;12.540;2022-07-30T11:24:41;33.00;59.90
40932;DHT22;36257;46.052;12.540;2022-07-30T11:27:07;33.10;57.70
40932;DHT22;36257;46.052;12.540;2022-07-30T11:29:37;33.30;59.00
40932;DHT22;36257;46.052;12.540;2022-07-30T11:32:23;33.30;58.90
40932;DHT22;36257;46.052;12.540;2022-07-30T11:34:50;32.70;59.30
40932;DHT22;36257;46.052;12.540;2022-07-30T11:37:16;32.20;60.70
40932;DHT22;36257;46.052;12.540;2022-07-30T11:42:37;31.60;60.90
40932;DHT22;36257;46.052;12.540;2022-07-30T11:47:45;31.10;62.10
40932;DHT22;36257;46.052;12.540;2022-07-30T11:57:53;32.30;60.60
40932;DHT22;36257;46.052;12.540;2022-07-30T12:00:20;32.40;59.40
40932;DHT22;36257;46.052;12.540;2022-07-30T12:02:47;32.00;59.60
40932;DHT22;36257;46.052;12.540;2022-07-30T12:05:14;31.70;60.60
40932;DHT22;36257;46.052;12.540;2022-07-30T12:07:40;31.40;61.20
40932;DHT22;36257;46.052;12.540;2022-07-30T12:10:13;31.10;61.80
40932;DHT22;36257;46.052;12.540;2022-07-30T12:12:39;31.00;61.80
40932;DHT22;36257;46.052;12.540;2022-07-30T12:15:05;30.70;62.10
40932;DHT22;36257;46.052;12.540;2022-07-30T12:17:41;30.60;63.80
40932;DHT22;36257;46.052;12.540;2022-07-30T12:20:18;30.50;63.40
40932;DHT22;36257;46.052;12.540;2022-07-30T12:22:44;30.40;62.70
40932;DHT22;36257;46.052;12.540;2022-07-30T12:25:10;30.40;63.10
40932;DHT22;36257;46.052;12.540;2022-07-30T12:27:37;30.70;63.20
40932;DHT22;36257;46.052;12.540;2022-07-30T12:30:06;31.20;61.20
40932;DHT22;36257;46.052;12.540;2022-07-30T12:32:33;31.30;61.10
40932;DHT22;36257;46.052;12.540;2022-07-30T12:34:59;31.20;59.60
40932;DHT22;36257;46.052;12.540;2022-07-30T12:37:25;31.10;59.60
40932;DHT22;36257;46.052;12.540;2022-07-30T12:40:12;30.90;59.90
40932;DHT22;36257;46.052;12.540;2022-07-30T12:42:53;30.80;60.30
40932;DHT22;36257;46.052;12.540;2022-07-30T12:45:29;30.50;60.20
40932;DHT22;36257;46.052;12.540;2022-07-30T12:47:56;30.40;61.10
40932;DHT22;36257;46.052;12.540;2022-07-30T12:50:22;30.40;62.00
40932;DHT22;36257;46.052;12.540;2022-07-30T12:52:49;30.70;63.00
40932;DHT22;36257;46.052;12.540;2022-07-30T12:55:17;31.20;62.00
40932;DHT22;36257;46.052;12.540;2022-07-30T13:00:47;32.10;59.90
40932;DHT22;36257;46.052;12.540;2022-07-30T13:03:24;32.40;58.10
40932;DHT22;36257;46.052;12.540;2022-07-30T13:05:52;32.50;57.80
40932;DHT22;36257;46.052;12.540;2022-07-30T13:08:18;32.50;58.00
40932;DHT22;36257;46.052;12.540;2022-07-30T13:10:58;32.30;58.20
40932;DHT22;36257;46.052;12.540;2022-07-30T13:13:25;32.20;58.70
40932;DHT22;36257;46.052;12.540;2022-07-30T13:16:04;32.20;57.90
40932;DHT22;36257;46.052;12.540;2022-07-30T13:18:32;32.20;60.20
40932;DHT22;36257;46.052;12.540;2022-07-30T13:20:59;32.30;57.10
40932;DHT22;36257;46.052;12.540;2022-07-30T13:23:25;32.10;58.70
40932;DHT22;36257;46.052;12.540;2022-07-30T13:25:55;31.80;59.70
40932;DHT22;36257;46.052;12.540;2022-07-30T13:28:21;31.60;60.80
40932;DHT22;36257;46.052;12.540;2022-07-30T13:30:47;31.50;60.50
40932;DHT22;36257;46.052;12.540;2022-07-30T13:33:14;31.70;60.40
40932;DHT22;36257;46.052;12.540;2022-07-30T13:35:40;32.00;59.50
40932;DHT22;36257;46.052;12.540;2022-07-30T13:38:05;32.20;59.40
40932;DHT22;36257;46.052;12.540;2022-07-30T13:40:32;32.40;57.20
40932;DHT22;36257;46.052;12.540;2022-07-30T13:42:59;32.40;57.70
40932;DHT22;36257;46.052;12.540;2022-07-30T13:45:24;32.60;59.60
40932;DHT22;36257;46.052;12.540;2022-07-30T13:47:50;32.60;58.00
40932;DHT22;36257;46.052;12.540;2022-07-30T13:50:17;32.50;59.00
40932;DHT22;36257;46.052;12.540;2022-07-30T13:52:43;32.40;58.30
40932;DHT22;36257;46.052;12.540;2022-07-30T13:55:09;32.20;62.40
40932;DHT22;36257;46.052;12.540;2022-07-30T13:57:34;31.80;68.00
40932;DHT22;36257;46.052;12.540;2022-07-30T14:00:00;31.40;69.70
40932;DHT22;36257;46.052;12.540;2022-07-30T14:02:26;31.10;75.20
40932;DHT22;36257;46.052;12.540;2022-07-30T14:04:52;30.50;75.30
40932;DHT22;36257;46.052;12.540;2022-07-30T14:07:18;29.70;78.60
40932;DHT22;36257;46.052;12.540;2022-07-30T14:09:43;28.90;79.10
40932;DHT22;36257;46.052;12.540;2022-07-30T14:12:09;28.40;83.90
40932;DHT22;36257;46.052;12.540;2022-07-30T14:14:35;28.10;83.30
40932;DHT22;36257;46.052;12.540;2022-07-30T14:17:00;27.80;83.20
40932;DHT22;36257;46.052;12.540;2022-07-30T14:19:26;27.50;85.50
40932;DHT22;36257;46.052;12.540;2022-07-30T14:21:52;27.20;86.60
40932;DHT22;36257;46.052;12.540;2022-07-30T14:24:19;27.10;87.70
40932;DHT22;36257;46.052;12.540;2022-07-30T14:26:45;27.00;87.90
40932;DHT22;36257;46.052;12.540;2022-07-30T14:29:10;26.80;88.10
40932;DHT22;36257;46.052;12.540;2022-07-30T14:31:36;26.60;89.40
40932;DHT22;36257;46.052;12.540;2022-07-30T14:34:03;26.50;90.20
40932;DHT22;36257;46.052;12.540;2022-07-30T14:36:28;26.40;90.50
40932;DHT22;36257;46.052;12.540;2022-07-30T14:38:58;26.30;89.90
40932;DHT22;36257;46.052;12.540;2022-07-30T14:41:25;26.20;91.20
40932;DHT22;36257;46.052;12.540;2022-07-30T14:43:51;26.10;91.10
40932;DHT22;36257;46.052;12.540;2022-07-30T14:46:20;26.10;90.70
40932;DHT22;36257;46.052;12.540;2022-07-30T14:48:46;26.00;91.30
40932;DHT22;36257;46.052;12.540;2022-07-30T14:51:11;26.00;93.00
40932;DHT22;36257;46.052;12.540;2022-07-30T14:53:37;25.90;91.80
40932;DHT22;36257;46.052;12.540;2022-07-30T14:56:03;25.80;92.60
40932;DHT22;36257;46.052;12.540;2022-07-30T14:58:29;25.80;92.10
40932;DHT22;36257;46.052;12.540;2022-07-30T15:00:54;25.90;91.70
40932;DHT22;36257;46.052;12.540;2022-07-30T15:03:20;26.00;91.10
40932;DHT22;36257;46.052;12.540;2022-07-30T15:05:46;26.10;91.00
40932;DHT22;36257;46.052;12.540;2022-07-30T15:08:11;26.20;92.20
40932;DHT22;36257;46.052;12.540;2022-07-30T15:10:38;26.30;91.40
40932;DHT22;36257;46.052;12.540;2022-07-30T15:13:04;26.30;92.00
40932;DHT22;36257;46.052;12.540;2022-07-30T15:15:30;26.30;94.10
40932;DHT22;36257;46.052;12.540;2022-07-30T15:17:57;26.40;92.90
40932;DHT22;36257;46.052;12.540;2022-07-30T15:20:23;26.50;91.30
40932;DHT22;36257;46.052;12.540;2022-07-30T15:22:49;26.50;91.80
40932;DHT22;36257;46.052;12.540;2022-07-30T15:25:15;26.60;91.40
40932;DHT22;36257;46.052;12.540;2022-07-30T15:27:41;26.70;88.80
40932;DHT22;36257;46.052;12.540;2022-07-30T15:30:07;26.90;86.00
40932;DHT22;36257;46.052;12.540;2022-07-30T15:32:33;27.10;85.90
40932;DHT22;36257;46.052;12.540;2022-07-30T15:34:58;27.20;84.20
40932;DHT22;36257;46.052;12.540;2022-07-30T15:37:25;27.40;84.00
40932;DHT22;36257;46.052;12.540;2022-07-30T15:39:50;27.50;82.80
40932;DHT22;36257;46.052;12.540;2022-07-30T15:42:16;27.70;83.50
40932;DHT22;36257;46.052;12.540;2022-07-30T15:44:42;27.70;83.50
40932;DHT22;36257;46.052;12.540;2022-07-30T15:47:07;27.90;83.20
40932;DHT22;36257;46.052;12.540;2022-07-30T15:49:33;27.90;83.20
40932;DHT22;36257;46.052;12.540;2022-07-30T15:51:59;27.90;83.80
40932;DHT22;36257;46.052;12.540;2022-07-30T15:54:25;27.90;84.70
40932;DHT22;36257;46.052;12.540;2022-07-30T15:56:52;27.80;84.70
40932;DHT22;36257;46.052;12.540;2022-07-30T15:59:19;27.80;81.10